createdAt,value
2018-05-27T00:01:46.228Z,19.77
2018-05-27T00:04:14.368Z,18.77
2018-05-27T00:06:42.051Z,19.10
2018-05-27T00:09:09.745Z,17.57
2018-05-27T00:11:37.570Z,19.23
2018-05-27T00:14:05.257Z,18.93
2018-05-27T00:16:32.912Z,18.70
2018-05-27T00:19:01.059Z,16.83
2018-05-27T00:21:28.666Z,16.97
2018-05-27T00:23:56.265Z,16.83
2018-05-27T00:26:23.998Z,16.40
2018-05-27T00:28:51.605Z,17.77
2018-05-27T00:31:19.271Z,17.30
2018-05-27T00:33:46.937Z,18.10
2018-05-27T00:36:14.603Z,15.93
2018-05-27T00:38:42.231Z,16.67
2018-05-27T00:41:09.958Z,16.70
2018-05-27T00:43:37.539Z,16.73
2018-05-27T00:46:05.262Z,17.50
2018-05-27T00:48:33.154Z,17.73
2018-05-27T00:51:00.745Z,17.43
2018-05-27T00:53:40.201Z,17.00
2018-05-27T00:56:07.928Z,16.87
2018-05-27T00:58:35.591Z,16.07
2018-05-27T01:01:03.432Z,16.90
2018-05-27T01:03:31.084Z,16.23
2018-05-27T01:05:58.798Z,15.77
2018-05-27T01:08:26.939Z,16.10
2018-05-27T01:10:54.545Z,15.97
2018-05-27T01:13:22.176Z,16.17
2018-05-27T01:15:49.878Z,16.83
2018-05-27T01:18:17.508Z,16.63
2018-05-27T01:20:45.127Z,15.77
2018-05-27T01:23:12.844Z,15.77
2018-05-27T01:25:40.447Z,14.80
2018-05-27T01:28:08.130Z,15.20
2018-05-27T01:30:36.261Z,14.80
2018-05-27T01:33:03.842Z,14.20
2018-05-27T01:35:31.494Z,15.20
2018-05-27T01:37:59.371Z,14.63
2018-05-27T01:40:27.019Z,14.33
2018-05-27T01:42:54.729Z,14.20
2018-05-27T01:45:22.372Z,14.30
2018-05-27T01:47:50.022Z,14.00
2018-05-27T01:50:18.696Z,14.37
2018-05-27T01:52:46.398Z,14.13
2018-05-27T01:55:13.997Z,14.57
2018-05-27T01:57:41.634Z,14.70
2018-05-27T02:00:09.541Z,14.23
2018-05-27T02:02:37.190Z,14.07
2018-05-27T02:05:04.851Z,14.70
2018-05-27T02:07:32.715Z,14.50
2018-05-27T02:10:00.325Z,13.43
2018-05-27T02:12:28.035Z,13.00
2018-05-27T02:14:55.714Z,12.83
2018-05-27T02:17:23.334Z,11.67
2018-05-27T02:19:51.006Z,11.23
2018-05-27T02:22:18.665Z,12.00
2018-05-27T02:24:46.309Z,10.93
2018-05-27T02:27:13.955Z,12.13
2018-05-27T02:29:41.662Z,12.43
2018-05-27T02:32:09.282Z,12.03
2018-05-27T02:34:36.953Z,12.70
2018-05-27T02:37:04.651Z,12.83
2018-05-27T02:39:32.277Z,13.37
2018-05-27T02:41:59.907Z,12.63
2018-05-27T02:44:27.813Z,13.57
2018-05-27T02:46:55.430Z,13.63
2018-05-27T02:49:23.108Z,13.17
2018-05-27T02:51:50.949Z,12.43
2018-05-27T02:54:18.615Z,12.97
2018-05-27T02:56:46.305Z,12.93
2018-05-27T02:59:14.128Z,12.17
2018-05-27T03:01:41.861Z,12.90
2018-05-27T03:04:10.281Z,12.50
2018-05-27T03:06:38.312Z,13.07
2018-05-27T03:09:06.066Z,12.73
2018-05-27T03:11:33.667Z,13.27
2018-05-27T03:14:01.374Z,13.97
2018-05-27T03:16:28.985Z,13.00
2018-05-27T03:18:57.671Z,13.33
2018-05-27T03:21:25.832Z,13.17
2018-05-27T03:23:53.401Z,12.63
2018-05-27T03:26:21.054Z,13.30
2018-05-27T03:28:48.928Z,13.30
2018-05-27T03:31:16.621Z,13.33
2018-05-27T03:33:44.286Z,12.97
2018-05-27T03:36:12.487Z,13.20
2018-05-27T03:38:40.185Z,12.83
2018-05-27T03:41:08.863Z,13.13
2018-05-27T03:43:36.542Z,12.80
2018-05-27T03:46:04.173Z,12.60
2018-05-27T03:48:31.834Z,12.33
2018-05-27T03:50:59.545Z,13.73
2018-05-27T03:53:27.176Z,16.07
2018-05-27T03:55:54.825Z,16.10
2018-05-27T03:58:23.548Z,18.50
2018-05-27T04:00:51.245Z,27.73
2018-05-27T04:03:18.911Z,16.87
2018-05-27T04:05:58.191Z,14.53
2018-05-27T04:08:32.589Z,14.77
2018-05-27T04:11:00.371Z,13.23
2018-05-27T04:13:28.151Z,13.80
2018-05-27T04:15:55.809Z,12.93
2018-05-27T04:18:23.466Z,12.53
2018-05-27T04:20:51.122Z,13.10
2018-05-27T04:23:18.692Z,12.83
2018-05-27T04:25:46.563Z,13.00
2018-05-27T04:28:14.275Z,15.10
2018-05-27T04:30:41.904Z,14.77
2018-05-27T04:33:10.091Z,13.83
2018-05-27T04:35:37.667Z,13.13
2018-05-27T04:38:05.342Z,12.57
2018-05-27T04:40:33.168Z,12.87
2018-05-27T04:43:00.838Z,14.17
2018-05-27T04:45:28.467Z,13.10
2018-05-27T04:47:56.173Z,13.60
2018-05-27T04:50:23.818Z,22.70
2018-05-27T04:52:51.471Z,20.07
2018-05-27T04:55:19.187Z,23.17
2018-05-27T04:57:46.772Z,14.37
2018-05-27T05:00:14.397Z,14.10
2018-05-27T05:02:42.612Z,13.97
2018-05-27T05:05:10.204Z,13.15
2018-05-27T05:07:37.820Z,12.15
2018-05-27T05:10:05.702Z,15.82
2018-05-27T05:12:33.334Z,12.43
2018-05-27T05:15:00.962Z,12.40
2018-05-27T05:17:28.606Z,9.55
2018-05-27T05:19:56.211Z,8.88
2018-05-27T05:22:24.451Z,11.68
2018-05-27T05:24:52.217Z,11.73
2018-05-27T05:27:20.216Z,8.07
2018-05-27T05:29:47.796Z,10.38
2018-05-27T05:32:16.012Z,8.57
2018-05-27T05:34:43.743Z,11.63
2018-05-27T05:37:11.338Z,9.32
2018-05-27T05:39:38.980Z,8.60
2018-05-27T05:42:06.613Z,8.52
2018-05-27T05:44:34.346Z,9.50
2018-05-27T05:47:08.974Z,9.13
2018-05-27T05:49:36.631Z,9.63
2018-05-27T05:52:09.206Z,8.80
2018-05-27T05:54:38.252Z,8.95
2018-05-27T05:57:06.012Z,8.05
2018-05-27T05:59:33.638Z,7.97
2018-05-27T06:02:01.288Z,8.63
2018-05-27T06:04:29.271Z,8.18
2018-05-27T06:06:56.946Z,8.65
2018-05-27T06:09:24.688Z,9.73
2018-05-27T06:11:52.262Z,8.23
2018-05-27T06:14:19.937Z,8.98
2018-05-27T06:16:48.092Z,8.55
2018-05-27T06:19:15.662Z,9.25
2018-05-27T06:21:43.314Z,8.75
2018-05-27T06:24:11.472Z,9.00
2018-05-27T06:26:39.068Z,8.23
2018-05-27T06:29:06.696Z,9.00
2018-05-27T06:31:34.556Z,8.75
2018-05-27T06:34:02.194Z,8.25
2018-05-27T06:36:29.833Z,8.38
2018-05-27T06:38:57.696Z,7.68
2018-05-27T06:41:25.682Z,8.48
2018-05-27T06:43:53.423Z,8.50
2018-05-27T06:46:21.191Z,7.70
2018-05-27T06:48:48.893Z,7.72
2018-05-27T06:51:16.653Z,6.15
2018-05-27T06:53:44.351Z,6.95
2018-05-27T06:56:11.897Z,6.35
2018-05-27T06:58:39.546Z,6.78
2018-05-27T07:01:07.668Z,6.25
2018-05-27T07:03:35.253Z,6.50
2018-05-27T07:06:02.957Z,6.28
2018-05-27T07:08:31.017Z,6.87
2018-05-27T07:10:58.720Z,7.07
2018-05-27T07:13:26.379Z,7.55
2018-05-27T07:15:54.200Z,7.82
2018-05-27T07:18:21.852Z,6.93
2018-05-27T07:20:49.541Z,7.70
2018-05-27T07:23:17.384Z,6.75
2018-05-27T07:25:45.205Z,7.43
2018-05-27T07:28:12.945Z,7.80
2018-05-27T07:30:40.769Z,8.15
2018-05-27T07:33:08.411Z,8.13
2018-05-27T07:35:36.084Z,7.53
2018-05-27T07:38:03.822Z,7.07
2018-05-27T07:40:31.508Z,7.65
2018-05-27T07:42:59.092Z,8.07
2018-05-27T07:45:26.974Z,8.68
2018-05-27T07:47:54.619Z,8.48
2018-05-27T07:50:22.248Z,7.87
2018-05-27T07:52:50.641Z,7.28
2018-05-27T07:55:18.219Z,7.32
2018-05-27T07:57:45.837Z,7.20
2018-05-27T08:00:13.582Z,7.47
2018-05-27T08:02:41.174Z,8.63
2018-05-27T08:05:08.805Z,7.37
2018-05-27T08:07:36.533Z,7.90
2018-05-27T08:10:04.267Z,6.10
2018-05-27T08:12:31.825Z,7.30
2018-05-27T08:14:59.623Z,6.20
2018-05-27T08:17:27.301Z,6.05
2018-05-27T08:19:54.981Z,5.87
2018-05-27T08:22:22.812Z,6.93
2018-05-27T08:24:50.499Z,6.10
2018-05-27T08:27:18.154Z,6.47
2018-05-27T08:29:46.002Z,7.32
2018-05-27T08:32:13.705Z,5.87
2018-05-27T08:34:41.345Z,7.18
2018-05-27T08:37:09.059Z,6.12
2018-05-27T08:39:36.664Z,6.07
2018-05-27T08:42:04.318Z,6.45
2018-05-27T08:44:32.320Z,6.53
2018-05-27T08:46:59.877Z,5.55
2018-05-27T08:49:27.497Z,6.25
2018-05-27T08:51:55.696Z,6.18
2018-05-27T08:54:23.266Z,6.50
2018-05-27T08:56:50.906Z,6.80
2018-05-27T08:59:18.587Z,6.50
2018-05-27T09:01:46.208Z,6.47
2018-05-27T09:04:13.897Z,6.45
2018-05-27T09:06:41.595Z,5.95
2018-05-27T09:09:09.176Z,6.62
2018-05-27T09:11:36.855Z,5.75
2018-05-27T09:14:04.536Z,7.87
2018-05-27T09:16:32.167Z,6.57
2018-05-27T09:18:59.795Z,5.68
2018-05-27T09:21:27.657Z,5.90
2018-05-27T09:23:55.330Z,5.55
2018-05-27T09:26:23.006Z,5.80
2018-05-27T09:28:50.827Z,6.10
2018-05-27T09:31:18.516Z,6.18
2018-05-27T09:33:46.156Z,6.30
2018-05-27T09:36:13.885Z,6.37
2018-05-27T09:38:41.515Z,5.62
2018-05-27T09:41:09.164Z,5.45
2018-05-27T09:43:37.041Z,5.72
2018-05-27T09:46:04.689Z,5.82
2018-05-27T09:48:32.334Z,5.78
2018-05-27T09:51:00.318Z,6.25
2018-05-27T09:53:27.898Z,6.05
2018-05-27T09:55:55.557Z,5.32
2018-05-27T09:58:23.642Z,5.85
2018-05-27T10:00:51.292Z,5.47
2018-05-27T10:03:18.884Z,4.97
2018-05-27T10:05:46.747Z,5.43
2018-05-27T10:08:14.483Z,8.15
2018-05-27T10:10:42.107Z,5.40
2018-05-27T10:13:09.831Z,6.20
2018-05-27T10:15:37.419Z,6.70
2018-05-27T10:18:05.020Z,5.75
2018-05-27T10:20:32.970Z,5.85
2018-05-27T10:23:00.604Z,5.22
2018-05-27T10:25:28.291Z,4.37
2018-05-27T10:27:55.959Z,4.93
2018-05-27T10:30:23.603Z,4.37
2018-05-27T10:32:51.267Z,4.57
2018-05-27T10:35:18.961Z,5.10
2018-05-27T10:37:46.593Z,4.97
2018-05-27T10:40:14.200Z,4.53
2018-05-27T10:42:42.061Z,5.37
2018-05-27T10:45:09.738Z,4.90
2018-05-27T10:47:37.419Z,4.70
2018-05-27T10:50:05.089Z,5.55
2018-05-27T10:52:32.732Z,5.00
2018-05-27T10:55:00.348Z,5.03
2018-05-27T10:57:28.084Z,4.57
2018-05-27T10:59:55.724Z,5.00
2018-05-27T11:02:23.344Z,4.70
2018-05-27T11:04:51.032Z,5.00
2018-05-27T11:07:18.651Z,4.70
2018-05-27T11:09:46.338Z,5.70
2018-05-27T11:12:14.238Z,5.15
2018-05-27T11:14:41.901Z,4.80
2018-05-27T11:17:09.524Z,4.60
2018-05-27T11:19:37.285Z,5.15
2018-05-27T11:22:04.881Z,4.82
2018-05-27T11:24:32.506Z,5.15
2018-05-27T11:27:00.178Z,5.05
2018-05-27T11:29:27.796Z,4.47
2018-05-27T11:31:55.464Z,4.93
2018-05-27T11:34:23.184Z,4.95
2018-05-27T11:36:50.804Z,4.55
2018-05-27T11:39:18.438Z,4.85
2018-05-27T11:41:46.166Z,4.97
2018-05-27T11:44:13.797Z,4.43
2018-05-27T11:46:41.390Z,4.55
2018-05-27T11:49:09.279Z,4.70
2018-05-27T11:51:36.967Z,4.45
2018-05-27T11:54:04.630Z,5.00
2018-05-27T11:56:32.280Z,5.00
2018-05-27T11:58:59.918Z,4.87
2018-05-27T12:01:27.576Z,5.90
2018-05-27T12:03:55.263Z,5.00
2018-05-27T12:06:22.919Z,4.90
2018-05-27T12:08:50.560Z,6.82
2018-05-27T12:11:18.721Z,6.70
2018-05-27T12:13:46.306Z,5.62
2018-05-27T12:16:13.965Z,5.30
2018-05-27T12:18:42.067Z,6.05
2018-05-27T12:21:09.649Z,5.62
2018-05-27T12:23:37.356Z,6.65
2018-05-27T12:26:05.050Z,4.87
2018-05-27T12:28:32.669Z,4.50
2018-05-27T12:31:00.326Z,4.80
2018-05-27T12:33:27.999Z,5.70
2018-05-27T12:35:55.617Z,4.65
2018-05-27T12:38:23.479Z,4.72
2018-05-27T12:40:51.184Z,5.10
2018-05-27T12:43:18.839Z,5.20
2018-05-27T12:45:46.464Z,5.15
2018-05-27T12:48:14.308Z,5.25
2018-05-27T12:50:41.993Z,4.68
2018-05-27T12:53:09.656Z,5.57
2018-05-27T12:55:37.355Z,4.95
2018-05-27T12:58:04.968Z,5.28
2018-05-27T13:00:32.625Z,5.15
2018-05-27T13:03:00.825Z,5.50
2018-05-27T13:05:28.419Z,6.50
2018-05-27T13:07:56.039Z,5.87
2018-05-27T13:10:24.056Z,5.90
2018-05-27T13:12:51.734Z,4.93
2018-05-27T13:15:19.395Z,6.10
2018-05-27T13:17:47.175Z,5.62
2018-05-27T13:20:14.776Z,6.18
2018-05-27T13:22:42.369Z,5.18
2018-05-27T13:25:10.071Z,5.43
2018-05-27T13:27:37.683Z,5.72
2018-05-27T13:30:05.418Z,5.90
2018-05-27T13:32:33.051Z,4.90
2018-05-27T13:35:00.656Z,4.82
2018-05-27T13:37:28.331Z,5.18
2018-05-27T13:39:56.177Z,7.57
2018-05-27T13:42:23.860Z,5.45
2018-05-27T13:44:51.515Z,5.80
2018-05-27T13:47:19.207Z,5.60
2018-05-27T13:49:46.843Z,5.07
2018-05-27T13:52:14.501Z,4.62
2018-05-27T13:54:42.347Z,4.93
2018-05-27T13:57:10.038Z,5.12
2018-05-27T13:59:37.702Z,4.87
2018-05-27T14:02:05.387Z,5.40
2018-05-27T14:04:33.008Z,5.30
2018-05-27T14:07:00.744Z,4.65
2018-05-27T14:09:28.775Z,5.60
2018-05-27T14:11:56.403Z,4.70
2018-05-27T14:14:24.027Z,5.15
2018-05-27T14:16:51.852Z,4.68
2018-05-27T14:19:19.529Z,4.40
2018-05-27T14:21:47.281Z,4.60
2018-05-27T14:24:15.114Z,4.05
2018-05-27T14:26:42.761Z,5.43
2018-05-27T14:29:10.400Z,6.00
2018-05-27T14:31:38.285Z,5.95
2018-05-27T14:34:05.938Z,5.97
2018-05-27T14:36:33.601Z,6.00
2018-05-27T14:39:01.801Z,5.93
2018-05-27T14:41:29.528Z,5.80
2018-05-27T14:43:57.206Z,6.30
2018-05-27T14:46:24.894Z,6.75
2018-05-27T14:48:52.493Z,7.30
2018-05-27T14:51:20.184Z,7.10
2018-05-27T14:53:48.321Z,6.60
2018-05-27T14:56:15.893Z,7.25
2018-05-27T14:58:43.581Z,4.93
2018-05-27T15:01:11.537Z,5.93
2018-05-27T15:03:39.167Z,5.60
2018-05-27T15:06:06.745Z,6.05
2018-05-27T15:08:34.598Z,5.22
2018-05-27T15:11:02.231Z,5.55
2018-05-27T15:13:29.910Z,6.15
2018-05-27T15:15:57.975Z,5.93
2018-05-27T15:18:25.683Z,5.70
2018-05-27T15:20:53.857Z,5.87
2018-05-27T15:23:21.759Z,4.97
2018-05-27T15:25:49.413Z,5.18
2018-05-27T15:28:17.161Z,5.03
2018-05-27T15:30:45.253Z,5.32
2018-05-27T15:33:13.897Z,5.10
2018-05-27T15:35:41.500Z,4.97
2018-05-27T15:38:09.213Z,5.75
2018-05-27T15:40:36.838Z,4.95
2018-05-27T15:43:04.509Z,4.93
2018-05-27T15:45:32.324Z,8.23
2018-05-27T15:47:59.979Z,5.65
2018-05-27T15:50:27.645Z,5.30
2018-05-27T15:52:55.360Z,6.07
2018-05-27T15:55:24.018Z,5.32
2018-05-27T15:57:51.660Z,5.07
2018-05-27T16:00:19.509Z,5.85
2018-05-27T16:02:47.184Z,6.53
2018-05-27T16:05:14.860Z,6.32
2018-05-27T16:07:42.728Z,6.75
2018-05-27T16:10:10.359Z,5.95
2018-05-27T16:12:38.029Z,6.57
2018-05-27T16:15:06.248Z,7.18
2018-05-27T16:17:33.849Z,6.35
2018-05-27T16:20:01.448Z,9.82
2018-05-27T16:22:29.100Z,12.30
2018-05-27T16:24:56.768Z,7.50
2018-05-27T16:27:24.409Z,7.60
2018-05-27T16:29:52.038Z,7.95
2018-05-27T16:32:19.639Z,7.50
2018-05-27T16:34:47.380Z,6.37
2018-05-27T16:37:15.550Z,8.10
2018-05-27T16:39:43.123Z,7.50
2018-05-27T16:42:10.748Z,7.12
2018-05-27T16:44:38.459Z,8.23
2018-05-27T16:47:06.131Z,7.87
2018-05-27T16:49:33.720Z,7.75
2018-05-27T16:52:01.896Z,7.55
2018-05-27T16:54:29.500Z,7.40
2018-05-27T16:56:57.107Z,7.85
2018-05-27T16:59:24.961Z,7.62
2018-05-27T17:01:52.632Z,7.53
2018-05-27T17:04:20.312Z,7.43
2018-05-27T17:06:47.969Z,8.15
2018-05-27T17:09:15.649Z,8.50
2018-05-27T17:11:43.271Z,8.57
2018-05-27T17:14:10.991Z,12.10
2018-05-27T17:16:38.637Z,13.45
2018-05-27T17:19:06.276Z,14.75
2018-05-27T17:21:33.983Z,11.50
2018-05-27T17:24:01.670Z,10.82
2018-05-27T17:26:29.317Z,9.73
2018-05-27T17:28:57.058Z,8.57
2018-05-27T17:31:24.899Z,7.68
2018-05-27T17:33:52.612Z,8.18
2018-05-27T17:36:22.521Z,7.97
2018-05-27T17:38:51.165Z,8.38
2018-05-27T17:41:18.804Z,7.95
2018-05-27T17:43:46.985Z,8.88
2018-05-27T17:46:14.571Z,8.82
2018-05-27T17:48:42.212Z,8.80
2018-05-27T17:51:10.080Z,8.98
2018-05-27T17:53:37.716Z,9.27
2018-05-27T17:56:05.414Z,8.95
2018-05-27T17:58:33.298Z,8.68
2018-05-27T18:01:00.892Z,8.45
2018-05-27T18:03:28.588Z,8.48
2018-05-27T18:05:56.417Z,7.90
2018-05-27T18:08:24.125Z,8.45
2018-05-27T18:10:51.757Z,8.68
2018-05-27T18:13:19.906Z,9.15
2018-05-27T18:15:47.501Z,9.00
2018-05-27T18:18:15.134Z,9.63
2018-05-27T18:20:42.840Z,8.98
2018-05-27T18:23:10.440Z,9.45
2018-05-27T18:25:38.125Z,8.80
2018-05-27T18:28:06.284Z,8.07
2018-05-27T18:30:33.861Z,8.77
2018-05-27T18:33:01.602Z,8.35
2018-05-27T18:35:29.245Z,8.83
2018-05-27T18:37:56.808Z,8.93
2018-05-27T18:40:24.507Z,8.23
2018-05-27T18:42:52.199Z,8.43
2018-05-27T18:45:19.813Z,7.60
2018-05-27T18:47:47.449Z,8.13
2018-05-27T18:50:15.132Z,9.03
2018-05-27T18:52:42.798Z,9.27
2018-05-27T18:55:10.453Z,9.27
2018-05-27T18:57:38.620Z,9.00
2018-05-27T19:00:06.204Z,8.52
2018-05-27T19:02:33.858Z,9.13
2018-05-27T19:05:01.672Z,9.10
2018-05-27T19:07:29.360Z,9.10
2018-05-27T19:09:57.073Z,7.97
2018-05-27T19:12:24.723Z,8.00
2018-05-27T19:14:52.312Z,8.43
2018-05-27T19:17:20.030Z,7.83
2018-05-27T19:19:47.750Z,8.40
2018-05-27T19:22:15.344Z,7.70
2018-05-27T19:24:42.978Z,7.80
2018-05-27T19:27:10.841Z,7.47
2018-05-27T19:29:38.510Z,7.75
2018-05-27T19:32:06.169Z,7.63
2018-05-27T19:34:41.260Z,8.80
2018-05-27T19:37:08.832Z,7.33
2018-05-27T19:39:36.496Z,8.47
2018-05-27T19:42:04.178Z,7.77
2018-05-27T19:44:31.835Z,8.43
2018-05-27T19:46:59.471Z,8.50
2018-05-27T19:49:27.302Z,8.97
2018-05-27T19:51:54.992Z,8.90
2018-05-27T19:54:22.643Z,9.00
2018-05-27T19:56:50.343Z,8.73
2018-05-27T19:59:17.953Z,8.27
2018-05-27T20:01:45.637Z,8.40
2018-05-27T20:04:13.339Z,8.57
2018-05-27T20:06:40.966Z,9.13
2018-05-27T20:09:08.604Z,8.80
2018-05-27T20:11:36.458Z,8.40
2018-05-27T20:14:04.428Z,7.77
2018-05-27T20:16:38.239Z,8.63
2018-05-27T20:19:05.920Z,9.23
2018-05-27T20:21:34.569Z,9.00
2018-05-27T20:24:08.409Z,8.63
2018-05-27T20:26:36.025Z,8.83
2018-05-27T20:29:11.084Z,9.73
2018-05-27T20:31:38.691Z,10.17
2018-05-27T20:34:06.339Z,10.10
2018-05-27T20:36:34.035Z,10.10
2018-05-27T20:39:08.508Z,11.10
2018-05-27T20:41:39.400Z,9.90
2018-05-27T20:44:07.057Z,10.27
2018-05-27T20:46:34.704Z,9.47
2018-05-27T20:49:02.661Z,9.87
2018-05-27T20:51:30.346Z,9.73
2018-05-27T20:53:58.032Z,9.53
2018-05-27T20:56:25.784Z,9.50
2018-05-27T20:58:53.353Z,9.77
2018-05-27T21:01:21.030Z,9.40
2018-05-27T21:03:49.011Z,9.63
2018-05-27T21:06:16.796Z,10.20
2018-05-27T21:08:45.041Z,8.93
2018-05-27T21:11:13.159Z,9.73
2018-05-27T21:13:40.786Z,9.83
2018-05-27T21:16:08.420Z,9.20
2018-05-27T21:18:36.203Z,9.73
2018-05-27T21:21:04.007Z,9.87
2018-05-27T21:23:31.673Z,10.40
2018-05-27T21:25:59.449Z,9.90
2018-05-27T21:28:27.096Z,9.63
2018-05-27T21:30:54.734Z,9.10
2018-05-27T21:33:22.482Z,9.70
2018-05-27T21:35:50.083Z,8.83
2018-05-27T21:38:17.841Z,9.93
2018-05-27T21:40:45.531Z,8.97
2018-05-27T21:43:13.337Z,9.23
2018-05-27T21:45:40.971Z,10.57
2018-05-27T21:48:08.938Z,10.90
2018-05-27T21:50:36.788Z,10.93
2018-05-27T21:53:04.591Z,10.20
2018-05-27T21:55:32.271Z,10.37
2018-05-27T21:58:00.040Z,9.97
2018-05-27T22:00:27.816Z,10.33
2018-05-27T22:02:55.658Z,9.70
2018-05-27T22:05:23.463Z,9.67
2018-05-27T22:07:51.157Z,10.20
2018-05-27T22:10:18.964Z,9.43
2018-05-27T22:12:46.604Z,9.50
2018-05-27T22:15:14.265Z,9.13
2018-05-27T22:17:42.088Z,9.20
2018-05-27T22:20:09.811Z,9.53
2018-05-27T22:22:37.473Z,9.00
2018-05-27T22:25:11.422Z,9.00
2018-05-27T22:27:39.133Z,9.97
2018-05-27T22:30:08.833Z,9.43
2018-05-27T22:32:36.717Z,10.40
2018-05-27T22:35:04.418Z,9.57
2018-05-27T22:37:32.033Z,9.13
2018-05-27T22:39:59.752Z,8.87
2018-05-27T22:42:27.393Z,9.03
2018-05-27T22:44:55.539Z,9.63
2018-05-27T22:47:23.416Z,9.17
2018-05-27T22:49:51.119Z,8.73
2018-05-27T22:52:18.744Z,9.20
2018-05-27T22:54:46.448Z,8.87
2018-05-27T22:57:14.151Z,8.77
2018-05-27T22:59:41.752Z,8.93
2018-05-27T23:02:09.684Z,8.03
2018-05-27T23:04:37.297Z,8.83
2018-05-27T23:07:04.926Z,9.40
2018-05-27T23:09:32.687Z,10.53
2018-05-27T23:12:00.296Z,10.00
2018-05-27T23:14:36.017Z,10.70
2018-05-27T23:17:03.834Z,9.53
2018-05-27T23:19:31.505Z,10.87
2018-05-27T23:21:59.150Z,10.53
2018-05-27T23:24:26.756Z,10.60
2018-05-27T23:26:54.375Z,13.20
2018-05-27T23:29:22.608Z,11.47
2018-05-27T23:31:50.352Z,11.30
2018-05-27T23:34:18.065Z,11.83
2018-05-27T23:36:45.786Z,12.37
2018-05-27T23:39:15.544Z,13.93
2018-05-27T23:41:43.295Z,13.37
2018-05-27T23:44:11.202Z,12.20
2018-05-27T23:46:39.036Z,13.40
2018-05-27T23:49:07.653Z,14.63
2018-05-27T23:51:36.984Z,15.67
2018-05-27T23:54:08.269Z,14.33
2018-05-27T23:56:36.082Z,15.43
2018-05-27T23:59:05.739Z,14.10
